Terminal Aerodrome Forecast
Issued by NWS Tiyan, Guam

Home | Current Version | Previous Version | Text Only | Print | Product List | Glossary On
Versions: 1 2 3 4 5 6 7 8 9 10 11 12 13 14 15 16 17 18 19 20 21 22 23 24 25 26 27 28 29 30 31 32 33 34 35
000
FTPQ31 PGUM 012300 RRA
TAFPQ
TAF
PGUM 012342Z 0200/0306 16006KT P6SM VCSH SCT016 SCT040 BKN140
      TEMPO 0202/0206 -SHRA SCT014CB BKN030=

USA.gov is the U.S. government's official web portal to all federal, state and local government web resources and services.